Terminal Aerodrome Forecast
Issued by NWS Twin Cities, MN

Home | Current Version | Previous Version | Text Only | Print | Product List | Glossary Off
Versions: 1 2 3 4 5 6 7 8 9 10 11 12 13 14 15 16 17 18 19

000
FTUS43 KMPX 281139
TAFSTC
TAF
KSTC 281139Z 2812/2912 12003KT 1/2SM FG VV002
      TEMPO 2812/2814 1SM -SHRA BR OVC005
     FM281400 15007KT 3SM -SHRA BR VCTS BKN007 OVC015CB
     FM281600 15009KT P6SM VCSH OVC025
     FM281800 16012G18KT P6SM SCT030 BKN060
     FM290000 14008KT P6SM SCT025 BKN080=

USA.gov is the U.S. government's official web portal to all federal, state and local government web resources and services.